createdAt,value
2022-11-14T00:01:20.435Z,12.30
2022-11-14T00:04:06.905Z,12.73
2022-11-14T00:06:53.628Z,12.90
2022-11-14T00:09:42.835Z,15.10
2022-11-14T00:12:28.871Z,14.82
2022-11-14T00:15:15.537Z,13.02
2022-11-14T00:18:03.459Z,12.05
2022-11-14T00:20:50.693Z,12.93
2022-11-14T00:23:36.791Z,12.98
2022-11-14T00:26:22.785Z,13.55
2022-11-14T00:29:09.182Z,11.88
2022-11-14T00:31:55.569Z,14.50
2022-11-14T00:34:42.955Z,14.20
2022-11-14T00:37:29.059Z,14.02
2022-11-14T00:40:15.647Z,13.00
2022-11-14T00:43:01.701Z,13.45
2022-11-14T00:45:48.922Z,14.25
2022-11-14T00:48:35.440Z,14.50
2022-11-14T00:51:23.290Z,13.32
2022-11-14T00:54:09.614Z,14.20
2022-11-14T00:56:56.084Z,12.65
2022-11-14T00:59:42.236Z,13.38
2022-11-14T01:02:28.691Z,12.85
2022-11-14T01:05:14.903Z,14.23
2022-11-14T01:08:02.663Z,13.57
2022-11-14T01:10:52.029Z,12.48
2022-11-14T01:13:38.885Z,13.00
2022-11-14T01:16:25.302Z,13.70
2022-11-14T01:19:11.354Z,13.10
2022-11-14T01:22:01.641Z,13.18
2022-11-14T01:24:52.500Z,13.80
2022-11-14T01:27:39.132Z,12.18
2022-11-14T01:30:25.170Z,12.65
2022-11-14T01:33:11.590Z,12.13
2022-11-14T01:36:00.653Z,11.73
2022-11-14T01:38:47.468Z,12.38
2022-11-14T01:41:35.143Z,11.68
2022-11-14T01:44:42.017Z,15.00
2022-11-14T01:47:33.316Z,13.00
2022-11-14T01:50:19.680Z,13.82
2022-11-14T01:53:05.780Z,13.52
2022-11-14T01:55:54.739Z,12.10
2022-11-14T01:58:47.081Z,13.13
2022-11-14T02:01:36.708Z,12.52
2022-11-14T02:04:25.481Z,13.60
2022-11-14T02:07:13.648Z,13.90
2022-11-14T02:10:02.386Z,12.75
2022-11-14T02:12:50.640Z,13.43
2022-11-14T02:15:38.656Z,12.52
2022-11-14T02:18:25.271Z,12.77
2022-11-14T02:21:13.032Z,13.95
2022-11-14T02:23:59.143Z,14.52
2022-11-14T02:26:45.801Z,14.70
2022-11-14T02:29:33.493Z,14.25
2022-11-14T02:32:19.475Z,13.27
2022-11-14T02:35:06.427Z,15.98
2022-11-14T02:37:54.409Z,13.25
2022-11-14T02:40:40.460Z,14.95
2022-11-14T02:43:27.044Z,15.30
2022-11-14T02:46:13.260Z,14.98
2022-11-14T02:48:59.629Z,12.48
2022-11-14T02:51:46.354Z,13.55
2022-11-14T02:54:33.897Z,14.10
2022-11-14T02:57:20.130Z,12.30
2022-11-14T03:00:11.805Z,12.35
2022-11-14T03:03:00.746Z,15.93
2022-11-14T03:05:47.319Z,12.25
2022-11-14T03:08:33.839Z,14.05
2022-11-14T03:11:21.760Z,14.43
2022-11-14T03:14:08.079Z,12.40
2022-11-14T03:16:56.366Z,12.40
2022-11-14T03:19:42.717Z,15.35
2022-11-14T03:22:29.174Z,13.13
2022-11-14T03:25:15.503Z,12.40
2022-11-14T03:28:02.922Z,13.38
2022-11-14T03:30:48.971Z,14.88
2022-11-14T03:33:35.770Z,14.75
2022-11-14T03:36:22.022Z,13.35
2022-11-14T03:39:09.147Z,13.18
2022-11-14T03:41:55.103Z,14.77
2022-11-14T03:44:42.803Z,13.27
2022-11-14T03:47:29.058Z,13.18
2022-11-14T03:50:15.154Z,13.45
2022-11-14T03:53:01.459Z,15.02
2022-11-14T03:55:47.882Z,14.13
2022-11-14T03:58:34.227Z,12.85
2022-11-14T04:01:22.000Z,13.48
2022-11-14T04:04:08.494Z,13.40
2022-11-14T04:06:54.728Z,13.20
2022-11-14T04:09:40.869Z,13.30
2022-11-14T04:12:27.414Z,12.57
2022-11-14T04:15:13.426Z,13.73
2022-11-14T04:18:01.243Z,13.10
2022-11-14T04:20:47.621Z,13.38
2022-11-14T04:23:33.706Z,14.13
2022-11-14T04:26:20.049Z,13.10
2022-11-14T04:29:06.553Z,11.45
2022-11-14T04:31:52.939Z,13.02
2022-11-14T04:34:40.572Z,11.85
2022-11-14T04:37:26.786Z,16.35
2022-11-14T04:40:13.231Z,13.85
2022-11-14T04:42:59.644Z,12.90
2022-11-14T04:45:46.251Z,11.55
2022-11-14T04:48:32.809Z,11.65
2022-11-14T04:51:20.756Z,13.85
2022-11-14T04:54:07.320Z,11.80
2022-11-14T04:56:53.454Z,13.45
2022-11-14T04:59:39.744Z,13.80
2022-11-14T05:02:25.889Z,14.65
2022-11-14T05:05:12.135Z,13.50
2022-11-14T05:07:59.838Z,12.70
2022-11-14T05:10:47.117Z,12.95
2022-11-14T05:13:33.231Z,13.95
2022-11-14T05:16:19.556Z,13.80
2022-11-14T05:19:05.987Z,14.18
2022-11-14T05:21:52.121Z,14.00
2022-11-14T05:24:39.640Z,13.95
2022-11-14T05:27:25.737Z,14.05
2022-11-14T05:30:13.080Z,14.45
2022-11-14T05:33:00.780Z,14.48
2022-11-14T05:35:47.222Z,16.05
2022-11-14T05:38:33.384Z,12.70
2022-11-14T05:41:21.224Z,11.85
2022-11-14T05:44:08.240Z,13.02
2022-11-14T05:46:54.403Z,11.80
2022-11-14T05:49:41.000Z,12.13
2022-11-14T05:52:27.457Z,11.20
2022-11-14T05:55:13.520Z,10.00
2022-11-14T05:58:01.556Z,11.20
2022-11-14T06:00:53.622Z,18.02
2022-11-14T06:03:42.314Z,12.65
2022-11-14T06:06:28.921Z,13.13
2022-11-14T06:09:15.030Z,10.68
2022-11-14T06:12:03.105Z,12.30
2022-11-14T06:14:50.859Z,10.68
2022-11-14T06:17:36.814Z,11.50
2022-11-14T06:20:23.345Z,12.80
2022-11-14T06:23:10.029Z,11.25
2022-11-14T06:25:59.572Z,10.35
2022-11-14T06:28:45.897Z,11.57
2022-11-14T06:31:33.701Z,12.77
2022-11-14T06:34:19.788Z,11.27
2022-11-14T06:37:06.034Z,13.15
2022-11-14T06:39:52.086Z,12.25
2022-11-14T06:42:38.500Z,11.88
2022-11-14T06:45:24.720Z,10.88
2022-11-14T06:48:12.829Z,11.50
2022-11-14T06:51:00.130Z,11.82
2022-11-14T06:53:47.091Z,12.02
2022-11-14T06:56:33.310Z,11.05
2022-11-14T06:59:19.602Z,11.68
2022-11-14T07:02:05.982Z,11.00
2022-11-14T07:04:53.800Z,11.73
2022-11-14T07:07:40.232Z,11.48
2022-11-14T07:10:26.398Z,11.85
2022-11-14T07:13:12.880Z,11.70
2022-11-14T07:15:59.558Z,12.45
2022-11-14T07:18:45.772Z,11.38
2022-11-14T07:21:35.684Z,12.10
2022-11-14T07:24:22.098Z,12.40
2022-11-14T07:27:12.034Z,14.25
2022-11-14T07:29:58.432Z,10.82
2022-11-14T07:32:44.611Z,11.50
2022-11-14T07:35:30.872Z,12.75
2022-11-14T07:38:18.656Z,11.77
2022-11-14T07:41:06.794Z,12.82
2022-11-14T07:43:53.412Z,12.30
2022-11-14T07:46:39.505Z,10.88
2022-11-14T07:49:26.029Z,11.77
2022-11-14T07:52:12.582Z,12.15
2022-11-14T07:54:59.959Z,11.77
2022-11-14T07:57:49.241Z,11.65
2022-11-14T08:00:36.198Z,11.80
2022-11-14T08:03:22.388Z,12.63
2022-11-14T08:06:10.628Z,13.40
2022-11-14T08:08:56.863Z,11.23
2022-11-14T08:11:50.234Z,12.90
2022-11-14T08:14:36.495Z,11.27
2022-11-14T08:17:23.337Z,10.77
2022-11-14T08:20:12.282Z,10.63
2022-11-14T08:23:04.883Z,11.20
2022-11-14T08:25:51.278Z,10.73
2022-11-14T08:28:39.133Z,11.35
2022-11-14T08:31:26.033Z,11.77
2022-11-14T08:34:12.561Z,11.63
2022-11-14T08:36:59.152Z,12.43
2022-11-14T08:39:45.469Z,12.43
2022-11-14T08:42:31.726Z,11.43
2022-11-14T08:45:19.484Z,12.83
2022-11-14T08:48:05.919Z,12.93
2022-11-14T08:50:52.030Z,12.93
2022-11-14T08:53:38.233Z,13.83
2022-11-14T08:56:24.689Z,14.07
2022-11-14T08:59:11.270Z,14.33
2022-11-14T09:01:59.032Z,14.00
2022-11-14T09:04:45.589Z,14.27
2022-11-14T09:07:32.033Z,14.73
2022-11-14T09:10:18.828Z,16.23
2022-11-14T09:13:05.018Z,15.80
2022-11-14T09:15:51.117Z,16.13
2022-11-14T09:18:38.854Z,15.75
2022-11-14T09:21:25.061Z,16.80
2022-11-14T09:24:11.225Z,19.05
2022-11-14T09:26:57.767Z,17.80
2022-11-14T09:29:44.124Z,18.25
2022-11-14T09:32:30.469Z,17.05
2022-11-14T09:35:18.320Z,18.70
2022-11-14T09:38:06.440Z,16.25
2022-11-14T09:41:02.560Z,18.05
2022-11-14T09:44:10.712Z,18.48
2022-11-14T09:47:03.051Z,18.63
2022-11-14T09:49:52.543Z,17.77
2022-11-14T09:52:45.011Z,18.40
2022-11-14T09:55:36.967Z,20.23
2022-11-14T09:58:23.967Z,18.50
2022-11-14T10:01:16.974Z,19.05
2022-11-14T10:04:12.255Z,16.73
2022-11-14T10:07:09.400Z,17.00
2022-11-14T10:10:10.510Z,14.82
2022-11-14T10:13:06.729Z,15.88
2022-11-14T10:16:02.974Z,16.42
2022-11-14T10:19:10.869Z,14.27
2022-11-14T10:22:12.894Z,14.45
2022-11-14T10:25:15.678Z,13.40
2022-11-14T10:28:20.889Z,13.50
2022-11-14T10:31:17.962Z,12.98
2022-11-14T10:34:09.504Z,11.68
2022-11-14T10:37:06.438Z,12.07
2022-11-14T10:39:55.306Z,12.02
2022-11-14T10:42:47.873Z,12.77
2022-11-14T10:45:38.312Z,12.23
2022-11-14T10:48:32.203Z,11.95
2022-11-14T10:51:25.389Z,11.23
2022-11-14T10:54:18.621Z,12.75
2022-11-14T10:57:04.868Z,13.60
2022-11-14T10:59:55.409Z,13.50
2022-11-14T11:02:51.292Z,12.95
2022-11-14T11:05:47.498Z,12.43
2022-11-14T11:08:51.565Z,13.13
2022-11-14T11:11:41.739Z,14.50
2022-11-14T11:14:30.148Z,13.05
2022-11-14T11:17:21.468Z,14.05
2022-11-14T11:20:28.772Z,14.20
2022-11-14T11:23:21.030Z,13.02
2022-11-14T11:26:09.555Z,12.00
2022-11-14T11:29:05.908Z,13.33
2022-11-14T11:31:54.050Z,12.57
2022-11-14T11:34:41.874Z,12.30
2022-11-14T11:37:31.363Z,13.50
2022-11-14T11:40:21.180Z,13.50
2022-11-14T11:43:37.949Z,13.57
2022-11-14T11:46:26.036Z,12.38
2022-11-14T11:49:18.614Z,13.57
2022-11-14T11:52:13.962Z,12.90
2022-11-14T11:55:06.102Z,13.30
2022-11-14T11:58:00.927Z,11.73
2022-11-14T12:00:47.347Z,12.70
2022-11-14T12:03:35.741Z,13.67
2022-11-14T12:06:25.615Z,13.80
2022-11-14T12:09:19.052Z,12.10
2022-11-14T12:12:11.168Z,12.40
2022-11-14T12:15:11.962Z,13.47
2022-11-14T12:18:17.011Z,11.60
2022-11-14T12:21:13.353Z,11.97
2022-11-14T12:24:19.019Z,11.93
2022-11-14T12:27:24.363Z,12.07
2022-11-14T12:30:14.808Z,11.57
2022-11-14T12:33:06.305Z,12.48
2022-11-14T12:35:55.681Z,10.83
2022-11-14T12:38:46.107Z,9.67
2022-11-14T12:41:35.629Z,10.68
2022-11-14T12:44:38.784Z,9.90
2022-11-14T12:47:25.806Z,9.52
2022-11-14T12:50:41.221Z,10.20
2022-11-14T12:53:46.516Z,9.97
2022-11-14T12:56:54.274Z,8.88
2022-11-14T13:00:03.332Z,9.95
2022-11-14T13:03:10.879Z,9.57
2022-11-14T13:06:00.613Z,10.00
2022-11-14T13:09:12.084Z,10.07
2022-11-14T13:12:16.324Z,10.88
2022-11-14T13:15:45.935Z,9.45
2022-11-14T13:18:52.683Z,10.68
2022-11-14T13:21:48.263Z,10.38
2022-11-14T13:25:10.423Z,10.00
2022-11-14T13:28:21.696Z,11.47
2022-11-14T13:31:19.184Z,11.37
2022-11-14T13:34:32.649Z,10.75
2022-11-14T13:37:37.367Z,10.73
2022-11-14T13:40:32.829Z,11.95
2022-11-14T13:43:30.376Z,10.80
2022-11-14T13:46:31.316Z,12.93
2022-11-14T13:49:32.209Z,12.60
2022-11-14T13:52:18.891Z,11.75
2022-11-14T13:55:06.369Z,12.20
2022-11-14T13:58:08.290Z,11.50
2022-11-14T14:01:13.099Z,12.85
2022-11-14T14:04:15.973Z,12.02
2022-11-14T14:07:12.846Z,11.23
2022-11-14T14:10:09.566Z,11.57
2022-11-14T14:13:12.843Z,10.90
2022-11-14T14:16:06.313Z,12.27
2022-11-14T14:19:03.507Z,12.50
2022-11-14T14:21:59.475Z,12.02
2022-11-14T14:24:56.615Z,12.17
2022-11-14T14:27:56.138Z,12.32
2022-11-14T14:30:42.881Z,11.90
2022-11-14T14:33:30.094Z,11.57
2022-11-14T14:36:25.430Z,12.65
2022-11-14T14:39:18.649Z,11.95
2022-11-14T14:42:12.095Z,11.93
2022-11-14T14:44:59.336Z,12.48
2022-11-14T14:47:48.298Z,13.48
2022-11-14T14:50:39.201Z,13.15
2022-11-14T14:53:27.622Z,12.45
2022-11-14T14:56:21.938Z,12.50
2022-11-14T14:59:19.028Z,12.13
2022-11-14T15:02:13.865Z,14.90
2022-11-14T15:05:01.746Z,12.25
2022-11-14T15:07:49.458Z,13.23
2022-11-14T15:10:36.300Z,14.25
2022-11-14T15:13:25.403Z,13.25
2022-11-14T15:16:12.306Z,12.27
2022-11-14T15:18:59.959Z,12.88
2022-11-14T15:21:46.574Z,12.55
2022-11-14T15:24:33.372Z,12.18
2022-11-14T15:27:21.520Z,12.30
2022-11-14T15:30:22.820Z,13.57
2022-11-14T15:33:29.128Z,12.88
2022-11-14T15:36:17.836Z,11.70
2022-11-14T15:39:06.089Z,12.93
2022-11-14T15:42:15.753Z,13.52
2022-11-14T15:45:02.132Z,13.40
2022-11-14T15:47:58.577Z,13.23
2022-11-14T15:50:45.007Z,12.82
2022-11-14T15:53:33.168Z,13.35
2022-11-14T15:56:19.711Z,12.65
2022-11-14T15:59:06.723Z,13.85
2022-11-14T16:01:56.100Z,11.95
2022-11-14T16:04:47.783Z,12.55
2022-11-14T16:07:34.636Z,12.82
2022-11-14T16:10:22.890Z,15.35
2022-11-14T16:13:10.092Z,13.40
2022-11-14T16:15:56.386Z,13.52
2022-11-14T16:18:42.774Z,15.82
2022-11-14T16:21:30.571Z,12.77
2022-11-14T16:24:19.487Z,13.15
2022-11-14T16:27:06.228Z,13.35
2022-11-14T16:29:52.962Z,13.35
2022-11-14T16:32:39.595Z,12.70
2022-11-14T16:35:27.699Z,12.57
2022-11-14T16:38:16.154Z,12.27
2022-11-14T16:41:02.733Z,12.07
2022-11-14T16:43:49.221Z,12.75
2022-11-14T16:46:35.516Z,12.68
2022-11-14T16:49:22.076Z,13.30
2022-11-14T16:52:10.793Z,12.60
2022-11-14T16:54:58.485Z,13.13
2022-11-14T16:57:44.776Z,13.80
2022-11-14T17:00:31.400Z,12.70
2022-11-14T17:03:18.157Z,13.48
2022-11-14T17:06:09.046Z,13.50
2022-11-14T17:08:56.179Z,13.43
2022-11-14T17:11:44.607Z,13.05
2022-11-14T17:14:30.776Z,13.38
2022-11-14T17:17:17.131Z,13.15
2022-11-14T17:20:03.243Z,14.52
2022-11-14T17:22:49.429Z,12.52
2022-11-14T17:25:36.019Z,12.95
2022-11-14T17:28:23.469Z,14.40
2022-11-14T17:31:10.130Z,14.18
2022-11-14T17:33:58.282Z,13.63
2022-11-14T17:36:44.735Z,13.10
2022-11-14T17:39:30.962Z,13.25
2022-11-14T17:42:17.270Z,13.75
2022-11-14T17:45:05.343Z,14.27
2022-11-14T17:47:52.303Z,13.93
2022-11-14T17:50:40.616Z,13.48
2022-11-14T17:53:27.045Z,15.00
2022-11-14T17:56:15.384Z,13.10
2022-11-14T17:59:01.642Z,13.63
2022-11-14T18:01:49.228Z,13.27
2022-11-14T18:04:35.478Z,14.07
2022-11-14T18:07:21.998Z,13.48
2022-11-14T18:10:08.977Z,13.98
2022-11-14T18:12:55.088Z,14.05
2022-11-14T18:15:41.107Z,14.93
2022-11-14T18:18:31.686Z,12.90
2022-11-14T18:21:20.368Z,13.80
2022-11-14T18:24:07.037Z,13.20
2022-11-14T18:26:53.451Z,13.20
2022-11-14T18:29:39.971Z,14.75
2022-11-14T18:32:26.005Z,13.80
2022-11-14T18:35:13.559Z,12.70
2022-11-14T18:38:00.075Z,13.55
2022-11-14T18:40:46.750Z,14.98
2022-11-14T18:43:33.962Z,13.32
2022-11-14T18:46:22.797Z,13.93
2022-11-14T18:49:09.373Z,15.40
2022-11-14T18:51:57.392Z,12.35
2022-11-14T18:54:43.796Z,12.93
2022-11-14T18:57:30.213Z,11.48
2022-11-14T19:00:17.196Z,13.43
2022-11-14T19:03:06.399Z,11.95
2022-11-14T19:05:53.180Z,11.85
2022-11-14T19:08:41.847Z,11.38
2022-11-14T19:11:46.290Z,12.90
2022-11-14T19:14:32.732Z,10.70
2022-11-14T19:17:20.874Z,10.68
2022-11-14T19:20:13.999Z,10.15
2022-11-14T19:23:01.064Z,12.57
2022-11-14T19:25:48.371Z,11.70
2022-11-14T19:28:34.941Z,10.93
2022-11-14T19:31:24.384Z,12.27
2022-11-14T19:34:11.066Z,10.45
2022-11-14T19:37:00.333Z,11.75
2022-11-14T19:39:47.867Z,11.30
2022-11-14T19:42:35.934Z,12.02
2022-11-14T19:45:22.203Z,12.10
2022-11-14T19:48:08.547Z,11.15
2022-11-14T19:51:00.449Z,10.50
2022-11-14T19:53:47.334Z,11.13
2022-11-14T19:56:33.782Z,10.50
2022-11-14T19:59:24.450Z,10.38
2022-11-14T20:02:14.025Z,11.13
2022-11-14T20:05:00.436Z,11.25
2022-11-14T20:07:46.852Z,10.10
2022-11-14T20:10:47.330Z,11.75
2022-11-14T20:13:35.119Z,10.63
2022-11-14T20:16:24.504Z,12.73
2022-11-14T20:19:10.978Z,11.70
2022-11-14T20:21:57.050Z,11.10
2022-11-14T20:24:43.119Z,11.20
2022-11-14T20:27:29.306Z,11.07
2022-11-14T20:30:16.271Z,10.73
2022-11-14T20:33:04.048Z,11.75
2022-11-14T20:35:50.230Z,11.45
2022-11-14T20:38:36.821Z,11.45
2022-11-14T20:41:23.356Z,12.85
2022-11-14T20:44:10.084Z,12.32
2022-11-14T20:46:56.931Z,12.18
2022-11-14T20:49:46.234Z,11.35
2022-11-14T20:52:32.452Z,11.20
2022-11-14T20:55:19.219Z,11.25
2022-11-14T20:58:05.575Z,11.50
2022-11-14T21:00:52.314Z,12.45
2022-11-14T21:03:38.656Z,11.50
2022-11-14T21:06:26.266Z,11.98
2022-11-14T21:09:12.517Z,11.95
2022-11-14T21:11:58.629Z,12.48
2022-11-14T21:14:45.000Z,11.60
2022-11-14T21:17:31.590Z,12.20
2022-11-14T21:20:18.069Z,12.32
2022-11-14T21:23:05.826Z,12.05
2022-11-14T21:25:51.741Z,12.43
2022-11-14T21:28:42.596Z,11.20
2022-11-14T21:31:31.806Z,12.25
2022-11-14T21:34:18.514Z,11.38
2022-11-14T21:37:04.931Z,10.27
2022-11-14T21:39:52.503Z,9.45
2022-11-14T21:42:39.758Z,10.13
2022-11-14T21:45:26.240Z,10.07
2022-11-14T21:48:12.643Z,9.80
2022-11-14T21:51:06.722Z,11.50
2022-11-14T21:53:55.143Z,11.32
2022-11-14T21:56:42.651Z,13.07
2022-11-14T21:59:29.037Z,11.52
2022-11-14T22:02:33.057Z,9.10
2022-11-14T22:05:19.347Z,10.38
2022-11-14T22:08:06.385Z,9.57
2022-11-14T22:10:52.767Z,10.43
2022-11-14T22:13:40.464Z,8.90
2022-11-14T22:16:26.834Z,9.85
2022-11-14T22:19:13.037Z,9.70
2022-11-14T22:21:59.283Z,9.45
2022-11-14T22:24:45.509Z,9.68
2022-11-14T22:27:31.913Z,9.48
2022-11-14T22:30:19.894Z,9.50
2022-11-14T22:33:06.310Z,7.57
2022-11-14T22:35:52.576Z,8.57
2022-11-14T22:38:39.261Z,9.52
2022-11-14T22:41:31.771Z,8.90
2022-11-14T22:44:18.847Z,9.77
2022-11-14T22:47:06.240Z,9.88
2022-11-14T22:49:52.740Z,8.50
2022-11-14T22:52:39.116Z,8.65
2022-11-14T22:55:25.283Z,8.43
2022-11-14T22:58:11.674Z,9.13
2022-11-14T23:00:58.354Z,7.90
2022-11-14T23:03:48.045Z,9.77
2022-11-14T23:06:35.428Z,8.60
2022-11-14T23:09:21.473Z,7.85
2022-11-14T23:12:08.095Z,8.90
2022-11-14T23:14:54.347Z,8.73
2022-11-14T23:17:40.555Z,9.13
2022-11-14T23:20:28.524Z,9.65
2022-11-14T23:23:15.506Z,8.55
2022-11-14T23:26:05.324Z,6.90
2022-11-14T23:28:51.711Z,7.85
2022-11-14T23:31:37.861Z,8.75
2022-11-14T23:34:24.438Z,7.23
2022-11-14T23:37:11.992Z,7.80
2022-11-14T23:39:58.615Z,9.40
2022-11-14T23:42:44.814Z,8.47
2022-11-14T23:45:31.624Z,8.53
2022-11-14T23:48:19.122Z,7.80
2022-11-14T23:51:05.423Z,7.70
2022-11-14T23:53:53.308Z,8.27
2022-11-14T23:56:39.590Z,7.95
2022-11-14T23:59:25.941Z,7.57
